Time;durP1;ratioP1;P1;durP2;ratioP2;P2;SDS_P1;SDS_P2;PMS_P1;PMS_P2;Temp;Humidity;BMP_temperature;BMP_pressure;BME280_temperature;BME280_humidity;BME280_pressure;Samples;Min_cycle;Max_cycle;Signal;HPM_P1;HPM_P2
2022/01/30 00:00:39;;;;;;;;;;;6.40;99.90;;;;;;4715534;30;20098;-85
2022/01/30 00:03:05;;;;;;;10.27;1.38;;;6.40;99.90;;;;;;4715570;30;20169;-85
2022/01/30 00:05:32;;;;;;;8.13;1.58;;;6.40;99.90;;;;;;4715427;30;20044;-85
2022/01/30 00:07:58;;;;;;;13.07;1.10;;;6.40;99.90;;;;;;4702671;30;20083;-85
2022/01/30 00:10:24;;;;;;;9.85;0.82;;;6.40;99.90;;;;;;4714592;30;20088;-85
2022/01/30 00:12:56;;;;;;;12.15;1.63;;;6.30;99.90;;;;;;4717684;30;20107;-84
2022/01/30 00:16:05;;;;;;;8.25;1.10;;;6.20;99.90;;;;;;4702845;30;20044;-85
2022/01/30 00:21:02;;;;;;;15.30;2.03;;;6.20;99.90;;;;;;4714420;30;20065;-85
2022/01/30 00:23:30;;;;;;;12.20;1.70;;;6.30;99.90;;;;;;4717526;30;20496;-85
2022/01/30 00:25:57;;;;;;;12.80;1.85;;;6.30;99.90;;;;;;4718574;30;20539;-85
2022/01/30 00:28:25;;;;;;;13.05;2.33;;;6.20;99.90;;;;;;4715205;30;20045;-85
2022/01/30 00:39:56;;;;;;;13.45;1.05;;;6.10;99.90;;;;;;4664728;30;20084;-85
2022/01/30 00:42:09;;;;;;;6.43;1.70;;;6.00;99.90;;;;;;4660264;30;20047;-85
2022/01/30 00:44:35;;;;;;;9.45;1.15;;;5.90;99.90;;;;;;4671850;30;20423;-85
2022/01/30 00:47:03;;;;;;;15.82;2.42;;;5.80;99.90;;;;;;4706832;30;20060;-85
2022/01/30 00:49:29;;;;;;;12.45;1.40;;;5.80;99.90;;;;;;4733452;30;20479;-85
2022/01/30 00:51:55;;;;;;;11.13;1.50;;;5.80;99.90;;;;;;4717159;30;20061;-85
2022/01/30 00:54:20;;;;;;;14.82;1.60;;;5.80;99.90;;;;;;4717464;30;20048;-85
2022/01/30 00:56:46;;;;;;;14.40;1.40;;;5.80;99.90;;;;;;4714179;30;20063;-85
2022/01/30 00:59:11;;;;;;;14.48;1.75;;;5.90;99.90;;;;;;4717699;30;20075;-85
2022/01/30 01:01:37;;;;;;;9.10;1.77;;;6.00;99.90;;;;;;4706231;30;20058;-85
2022/01/30 01:04:03;;;;;;;10.25;1.83;;;6.10;99.90;;;;;;4712027;30;20408;-85
2022/01/30 01:06:29;;;;;;;16.33;2.25;;;6.20;99.90;;;;;;4703707;30;20100;-85
2022/01/30 01:08:59;;;;;;;12.70;2.22;;;6.10;99.90;;;;;;4715207;30;20128;-85
2022/01/30 01:24:06;;;;;;;12.35;1.42;;;6.10;99.90;;;;;;4733597;30;20075;-85
2022/01/30 01:26:33;;;;;;;10.30;1.27;;;6.00;99.90;;;;;;4713568;30;20045;-85
2022/01/30 01:28:59;;;;;;;11.68;1.13;;;5.90;99.90;;;;;;4719900;30;20389;-85
2022/01/30 01:31:24;;;;;;;10.05;1.23;;;5.90;99.90;;;;;;4717218;30;20048;-85
2022/01/30 01:36:24;;;;;;;6.80;1.55;;;5.90;99.90;;;;;;4720040;30;20109;-85
2022/01/30 01:38:50;;;;;;;8.98;1.30;;;5.80;99.90;;;;;;4713504;30;20045;-85
2022/01/30 01:41:19;;;;;;;10.38;2.08;;;5.90;99.90;;;;;;4730383;30;20044;-85
2022/01/30 01:43:45;;;;;;;9.43;1.67;;;5.80;99.90;;;;;;4715571;30;20520;-85
2022/01/30 01:46:18;;;;;;;10.85;1.20;;;5.80;99.90;;;;;;4722185;30;20051;-85
2022/01/30 01:48:46;;;;;;;10.80;1.60;;;5.80;99.90;;;;;;4713453;30;20060;-86
2022/01/30 01:51:18;;;;;;;11.40;1.50;;;5.70;99.90;;;;;;4704893;30;20061;-84
2022/01/30 01:53:46;;;;;;;14.98;2.38;;;5.60;99.90;;;;;;4716743;30;20152;-85
2022/01/30 01:56:18;;;;;;;13.48;1.33;;;5.70;99.90;;;;;;4713828;30;20393;-85
2022/01/30 01:58:45;;;;;;;9.77;1.55;;;5.60;99.90;;;;;;4713755;30;20049;-85
2022/01/30 02:01:12;;;;;;;9.02;2.20;;;5.60;99.90;;;;;;4720119;30;20098;-85
2022/01/30 02:03:39;;;;;;;13.10;1.70;;;5.50;99.90;;;;;;4701748;30;20048;-85
2022/01/30 02:06:09;;;;;;;10.25;2.05;;;5.60;99.90;;;;;;4736212;30;20389;-85
2022/01/30 02:09:17;;;;;;;13.25;1.90;;;5.50;99.90;;;;;;4719063;30;20044;-86
2022/01/30 02:11:37;;;;;;;13.15;2.95;;;5.50;99.90;;;;;;4712691;30;20049;-84
2022/01/30 02:14:23;;;;;;;10.27;2.30;;;5.60;99.90;;;;;;4714487;30;20124;-84
2022/01/30 02:27:39;;;;;;;13.57;2.25;;;5.70;99.90;;;;;;4717220;30;20059;-84
2022/01/30 02:30:14;;;;;;;11.95;1.83;;;5.60;99.90;;;;;;4716223;30;20052;-85
2022/01/30 02:32:41;;;;;;;19.58;1.50;;;5.60;99.90;;;;;;4717010;30;20045;-84
2022/01/30 02:35:07;;;;;;;12.18;1.42;;;5.60;99.90;;;;;;4716541;30;20075;-84
2022/01/30 02:37:34;;;;;;;13.30;2.05;;;5.60;99.90;;;;;;4720701;30;20052;-85
2022/01/30 02:40:00;;;;;;;8.90;1.83;;;5.70;99.90;;;;;;4714862;30;20449;-84
2022/01/30 02:42:30;;;;;;;10.60;1.42;;;5.80;99.90;;;;;;4718408;30;20044;-85
2022/01/30 02:44:59;;;;;;;15.35;1.88;;;5.80;99.90;;;;;;4715007;30;20056;-85
2022/01/30 02:47:39;;;;;;;16.48;1.98;;;5.80;99.90;;;;;;4718703;30;20062;-85
2022/01/30 02:52:36;;;;;;;10.15;1.50;;;5.80;99.90;;;;;;4727922;30;20559;-85
2022/01/30 02:55:03;;;;;;;14.55;2.15;;;5.70;99.90;;;;;;4711631;30;20048;-85
2022/01/30 02:57:29;;;;;;;11.38;1.25;;;5.60;99.90;;;;;;4711600;30;20116;-85
2022/01/30 02:59:54;;;;;;;12.52;1.52;;;5.60;99.90;;;;;;4716130;30;20044;-85
2022/01/30 03:02:20;;;;;;;12.13;1.17;;;5.60;99.90;;;;;;4702457;30;20885;-85
2022/01/30 03:04:46;;;;;;;13.30;1.95;;;5.50;99.90;;;;;;4715503;30;20118;-84
2022/01/30 03:07:11;;;;;;;10.10;2.42;;;5.50;99.90;;;;;;4731687;30;20064;-84
2022/01/30 03:09:37;;;;;;;14.80;1.50;;;5.50;99.90;;;;;;4717999;30;20114;-85
2022/01/30 03:12:03;;;;;;;10.13;1.35;;;5.40;99.90;;;;;;4721275;30;20352;-84
2022/01/30 03:14:29;;;;;;;13.68;1.48;;;5.50;99.90;;;;;;4716227;30;20442;-85
2022/01/30 03:16:55;;;;;;;7.47;1.20;;;5.50;99.90;;;;;;4717653;30;20087;-85
2022/01/30 03:19:20;;;;;;;10.95;1.27;;;5.50;99.90;;;;;;4729814;30;20056;-84
2022/01/30 03:21:46;;;;;;;14.15;2.35;;;5.50;99.90;;;;;;4705574;30;20048;-85
2022/01/30 03:24:12;;;;;;;9.93;1.42;;;5.60;99.90;;;;;;4715764;30;20519;-85
2022/01/30 03:26:40;;;;;;;8.57;1.60;;;5.50;99.90;;;;;;4728796;30;20052;-85
2022/01/30 03:29:08;;;;;;;11.38;1.27;;;5.50;99.90;;;;;;4701576;30;20051;-85
2022/01/30 03:31:41;;;;;;;10.73;1.50;;;5.50;99.90;;;;;;4703891;30;20044;-85
2022/01/30 03:34:09;;;;;;;13.05;1.60;;;5.50;99.90;;;;;;4714861;30;20049;-84
2022/01/30 03:36:36;;;;;;;9.25;1.30;;;5.40;99.90;;;;;;4715394;30;20501;-85
2022/01/30 03:39:03;;;;;;;10.18;1.48;;;5.40;99.90;;;;;;4713853;30;20091;-85
2022/01/30 03:41:29;;;;;;;12.75;1.67;;;5.30;99.90;;;;;;4711340;30;20067;-84
2022/01/30 03:43:54;;;;;;;14.65;1.98;;;5.30;99.90;;;;;;4721181;30;20066;-84
2022/01/30 03:46:22;;;;;;;17.02;2.25;;;5.30;99.90;;;;;;4730420;30;20079;-85
2022/01/30 03:48:48;;;;;;;17.00;2.30;;;5.20;99.90;;;;;;4716131;30;20067;-85
2022/01/30 03:51:14;;;;;;;14.73;2.45;;;5.20;99.90;;;;;;4718801;30;20064;-85
2022/01/30 03:53:41;;;;;;;12.23;2.47;;;5.20;99.90;;;;;;4729610;30;20048;-85
2022/01/30 03:56:06;;;;;;;20.45;2.75;;;5.20;99.90;;;;;;4716334;30;20067;-85
2022/01/30 03:58:33;;;;;;;16.20;2.38;;;5.10;99.90;;;;;;4705957;30;20504;-84
2022/01/30 04:00:58;;;;;;;17.23;2.75;;;5.10;99.90;;;;;;4717998;30;20056;-84
2022/01/30 04:03:24;;;;;;;14.57;2.28;;;5.10;99.90;;;;;;4718551;30;20067;-84
2022/01/30 04:05:50;;;;;;;16.85;2.35;;;5.20;99.90;;;;;;4716593;30;20045;-84
2022/01/30 04:08:16;;;;;;;18.60;2.90;;;5.20;99.90;;;;;;4718911;30;20044;-85
2022/01/30 04:10:41;;;;;;;20.27;2.53;;;5.30;99.90;;;;;;4723385;30;20157;-85
2022/01/30 04:13:07;;;;;;;26.95;2.97;;;5.30;99.90;;;;;;4725055;30;20059;-85
2022/01/30 04:15:33;;;;;;;19.60;2.65;;;5.30;99.90;;;;;;4738003;30;20048;-85
2022/01/30 04:18:00;;;;;;;21.27;3.00;;;5.30;99.90;;;;;;4727947;30;20060;-85
2022/01/30 04:20:26;;;;;;;21.80;1.98;;;5.30;99.90;;;;;;4722705;30;20479;-85
2022/01/30 04:22:52;;;;;;;17.83;2.28;;;5.30;99.90;;;;;;4722345;30;20053;-84
2022/01/30 04:25:18;;;;;;;20.88;2.83;;;5.20;99.90;;;;;;4719376;30;20059;-85
2022/01/30 04:27:43;;;;;;;17.95;2.15;;;5.20;99.90;;;;;;4721937;30;20109;-85
2022/01/30 04:30:11;;;;;;;23.92;2.95;;;5.20;99.90;;;;;;4737501;30;20460;-85
2022/01/30 04:32:41;;;;;;;19.08;2.03;;;5.10;99.90;;;;;;4723680;30;20072;-85
2022/01/30 04:35:16;;;;;;;19.88;2.33;;;5.10;99.90;;;;;;4704409;30;20037;-85
2022/01/30 04:38:03;;;;;;;23.77;2.80;;;5.10;99.90;;;;;;4723172;30;20112;-85
2022/01/30 05:04:46;;;;;;;20.45;2.83;;;5.10;99.90;;;;;;4724211;30;20219;-85
2022/01/30 05:09:39;;;;;;;19.33;2.70;;;5.10;99.90;;;;;;4717139;30;20186;-85
2022/01/30 05:12:05;;;;;;;19.55;2.97;;;5.20;99.90;;;;;;4719272;30;20131;-85
2022/01/30 05:14:35;;;;;;;13.80;2.38;;;5.10;99.90;;;;;;4719093;30;20047;-84
2022/01/30 05:17:01;;;;;;;20.10;3.72;;;5.20;99.90;;;;;;4723955;30;20081;-85
2022/01/30 05:19:27;;;;;;;16.70;2.72;;;5.10;99.90;;;;;;4715810;30;20053;-85
2022/01/30 05:21:54;;;;;;;22.92;4.18;;;5.10;99.90;;;;;;4716892;30;20126;-84
2022/01/30 05:24:20;;;;;;;20.88;4.93;;;5.10;99.90;;;;;;4703614;30;20117;-85
2022/01/30 05:26:46;;;;;;;18.02;2.85;;;5.00;99.90;;;;;;4721284;30;20056;-85
2022/01/30 05:29:13;;;;;;;23.10;2.38;;;5.00;99.90;;;;;;4732131;30;20404;-85
2022/01/30 05:31:39;;;;;;;22.90;3.10;;;5.00;99.90;;;;;;4738508;30;20081;-85
2022/01/30 05:34:05;;;;;;;19.00;2.90;;;4.90;99.90;;;;;;4731940;30;20067;-85
2022/01/30 05:36:31;;;;;;;24.45;3.05;;;4.90;99.90;;;;;;4706469;30;20048;-85
2022/01/30 05:38:58;;;;;;;22.05;3.20;;;4.90;99.90;;;;;;4713228;30;20060;-85
2022/01/30 05:41:24;;;;;;;22.42;3.47;;;4.90;99.90;;;;;;4716005;30;20151;-84
2022/01/30 05:43:54;;;;;;;24.55;3.45;;;4.80;99.90;;;;;;4704593;30;20079;-85
2022/01/30 05:46:56;;;;;;;20.52;4.70;;;4.80;99.90;;;;;;4702320;30;20812;-85
2022/01/30 05:49:14;;;;;;;27.75;3.88;;;4.80;99.90;;;;;;4716824;30;20080;-85
2022/01/30 05:51:40;;;;;;;29.80;3.75;;;4.90;99.90;;;;;;4704722;30;20655;-84
2022/01/30 05:54:05;;;;;;;22.73;3.28;;;4.80;99.90;;;;;;4716589;30;20139;-85
2022/01/30 05:56:31;;;;;;;21.58;3.33;;;4.90;99.90;;;;;;4717760;30;20183;-85
2022/01/30 05:58:57;;;;;;;18.20;2.60;;;4.90;99.90;;;;;;4715146;30;20056;-85
2022/01/30 06:01:22;;;;;;;17.85;2.72;;;4.80;99.90;;;;;;4704632;30;20139;-85
2022/01/30 06:03:48;;;;;;;22.00;3.67;;;4.80;99.90;;;;;;4717153;30;20644;-84
2022/01/30 06:06:14;;;;;;;20.63;2.78;;;4.70;99.90;;;;;;4718178;30;20047;-85
2022/01/30 06:11:06;;;;;;;26.20;3.60;;;4.60;99.90;;;;;;4718104;30;20063;-84
2022/01/30 06:13:32;;;;;;;17.60;2.33;;;4.60;99.90;;;;;;4704964;30;20037;-84
2022/01/30 06:15:58;;;;;;;28.05;5.50;;;4.60;99.90;;;;;;4702499;30;20048;-85
2022/01/30 06:18:24;;;;;;;19.55;5.10;;;4.60;99.90;;;;;;4732709;30;20208;-85
2022/01/30 06:20:50;;;;;;;26.30;2.80;;;4.60;99.90;;;;;;4701613;30;20123;-84
2022/01/30 06:23:15;;;;;;;19.77;2.92;;;4.60;99.90;;;;;;4702452;30;20056;-85
2022/01/30 06:25:41;;;;;;;29.50;3.05;;;4.60;99.90;;;;;;4715459;30;20052;-84
2022/01/30 06:28:07;;;;;;;22.52;4.55;;;4.60;99.90;;;;;;4720059;30;20049;-84
2022/01/30 06:30:32;;;;;;;27.83;3.85;;;4.60;99.90;;;;;;4715550;30;20416;-85
2022/01/30 06:32:58;;;;;;;29.05;4.45;;;4.60;99.90;;;;;;4717991;30;20066;-85
2022/01/30 06:35:23;;;;;;;22.55;3.70;;;4.70;99.90;;;;;;4734139;30;20412;-85
2022/01/30 06:37:49;;;;;;;24.77;6.93;;;4.80;99.90;;;;;;4720431;30;20159;-85
2022/01/30 06:40:14;;;;;;;25.63;3.70;;;4.90;99.90;;;;;;4713795;30;20397;-85
2022/01/30 06:42:40;;;;;;;22.52;3.97;;;4.90;99.90;;;;;;4702490;30;20060;-85
2022/01/30 06:45:07;;;;;;;20.52;3.22;;;4.90;99.90;;;;;;4719376;30;20055;-85
2022/01/30 06:47:40;;;;;;;19.13;3.20;;;5.00;99.90;;;;;;4710640;30;20401;-85
2022/01/30 06:50:06;;;;;;;29.08;4.13;;;5.00;99.90;;;;;;4710889;30;20063;-85
2022/01/30 06:52:31;;;;;;;25.33;3.17;;;5.00;99.90;;;;;;4721698;30;20052;-85
2022/01/30 06:54:57;;;;;;;22.08;3.45;;;5.00;99.90;;;;;;4702169;30;20543;-84
2022/01/30 06:57:22;;;;;;;25.15;3.38;;;4.90;99.90;;;;;;4720765;30;20052;-85
2022/01/30 06:59:48;;;;;;;25.08;4.32;;;4.90;99.90;;;;;;4703214;30;20169;-84
2022/01/30 07:02:14;;;;;;;21.58;3.03;;;4.90;99.90;;;;;;4717513;30;20091;-84
2022/01/30 07:04:39;;;;;;;24.85;3.60;;;4.90;99.90;;;;;;4732219;30;20131;-85
2022/01/30 07:07:05;;;;;;;24.70;3.42;;;5.00;99.90;;;;;;4717480;30;20048;-85
2022/01/30 07:09:34;;;;;;;20.67;3.45;;;5.10;99.90;;;;;;4737039;30;20052;-85
2022/01/30 07:12:00;;;;;;;23.95;3.63;;;5.10;99.90;;;;;;4714927;30;20477;-85
2022/01/30 07:14:29;;;;;;;30.48;4.00;;;5.20;99.90;;;;;;4712259;30;20040;-84
2022/01/30 07:16:58;;;;;;;21.02;3.42;;;5.20;99.90;;;;;;4710584;30;20084;-85
2022/01/30 07:19:24;;;;;;;25.38;3.22;;;5.20;99.90;;;;;;4719134;30;20103;-85
2022/01/30 07:21:50;;;;;;;30.90;5.25;;;5.20;99.90;;;;;;4716933;30;20131;-85
2022/01/30 07:24:21;;;;;;;26.80;3.10;;;5.20;99.90;;;;;;4697812;30;20140;-85
2022/01/30 07:26:46;;;;;;;14.30;3.13;;;5.20;99.90;;;;;;4712608;30;20390;-85
2022/01/30 07:29:23;;;;;;;22.38;3.22;;;5.20;99.90;;;;;;4716382;30;20051;-85
2022/01/30 07:31:52;;;;;;;24.38;3.13;;;5.20;99.90;;;;;;4717820;30;20125;-85
2022/01/30 07:34:20;;;;;;;20.48;2.78;;;5.20;99.90;;;;;;4714724;30;20118;-85
2022/01/30 07:36:56;;;;;;;24.67;3.60;;;5.10;99.90;;;;;;4714199;30;20151;-85
2022/01/30 07:39:25;;;;;;;49.53;6.07;;;5.20;99.90;;;;;;4701392;30;20056;-85
2022/01/30 07:42:05;;;;;;;;;;;;;;;;;;;;;
2022/01/30 07:44:38;;;;;;;27.10;3.70;;;5.20;99.90;;;;;;4730459;30;20048;-85
2022/01/30 07:47:09;;;;;;;27.42;2.95;;;5.30;99.90;;;;;;4713200;30;20419;-85
2022/01/30 07:49:35;;;;;;;26.88;4.22;;;5.30;99.90;;;;;;4730671;30;20068;-84
2022/01/30 07:56:27;;;;;;;24.83;3.83;;;5.40;99.90;;;;;;4714619;30;20056;-85
2022/01/30 08:02:36;;;;;;;28.35;4.90;;;5.50;99.90;;;;;;4713436;30;20095;-84
2022/01/30 08:05:02;;;;;;;28.50;4.05;;;5.60;99.90;;;;;;4704097;30;20049;-84
2022/01/30 08:08:09;;;;;;;25.08;3.97;;;5.70;99.90;;;;;;4695813;30;20053;-84
2022/01/30 08:10:40;;;;;;;23.90;3.67;;;5.70;99.90;;;;;;4662183;30;20137;-85
2022/01/30 08:13:07;;;;;;;31.27;5.18;;;5.70;99.90;;;;;;4647079;30;20596;-84
2022/01/30 08:16:20;;;;;;;16.70;3.08;;;5.70;99.90;;;;;;4632361;30;20099;-84
2022/01/30 08:18:48;;;;;;;26.25;4.25;;;5.60;99.90;;;;;;4641853;30;20069;-85
2022/01/30 08:21:14;;;;;;;23.73;3.90;;;5.60;99.90;;;;;;4689105;30;20060;-84
2022/01/30 08:23:40;;;;;;;33.38;5.18;;;5.60;99.90;;;;;;4706927;30;20103;-84
2022/01/30 08:26:05;;;;;;;25.27;3.55;;;5.60;99.90;;;;;;4700974;30;20176;-84
2022/01/30 08:28:31;;;;;;;23.98;4.88;;;5.70;99.90;;;;;;4697344;30;20049;-85
2022/01/30 08:30:56;;;;;;;24.00;3.95;;;5.70;99.90;;;;;;4714520;30;20040;-85
2022/01/30 08:33:22;;;;;;;27.92;3.72;;;5.70;99.90;;;;;;4719756;30;20134;-87
2022/01/30 08:35:49;;;;;;;25.08;3.92;;;5.80;99.90;;;;;;4711612;30;20503;-82
2022/01/30 08:38:17;;;;;;;21.25;4.45;;;5.80;99.90;;;;;;4714192;30;20092;-82
2022/01/30 08:40:47;;;;;;;28.80;5.40;;;5.70;99.90;;;;;;4718077;30;20045;-82
2022/01/30 08:43:13;;;;;;;27.98;3.88;;;5.80;99.90;;;;;;4744152;30;20079;-83
2022/01/30 08:45:39;;;;;;;21.95;3.63;;;5.70;99.90;;;;;;4714871;30;20059;-81
2022/01/30 08:48:05;;;;;;;31.63;3.83;;;5.70;99.90;;;;;;4740454;30;20056;-82
2022/01/30 08:50:31;;;;;;;35.60;5.47;;;5.70;99.90;;;;;;4716703;30;20060;-82
2022/01/30 08:52:57;;;;;;;23.17;4.43;;;5.70;99.90;;;;;;4726835;30;20113;-82
2022/01/30 08:55:22;;;;;;;31.30;4.72;;;5.80;99.90;;;;;;4716653;30;20052;-82
2022/01/30 08:57:49;;;;;;;25.50;3.90;;;5.80;99.90;;;;;;4741825;30;20049;-82
2022/01/30 09:00:17;;;;;;;26.13;3.85;;;5.80;99.90;;;;;;4731091;30;20115;-84
2022/01/30 09:02:43;;;;;;;22.58;4.80;;;5.80;99.90;;;;;;4712093;30;20459;-84
2022/01/30 09:05:10;;;;;;;21.83;3.85;;;5.70;99.90;;;;;;4727902;30;20638;-84
2022/01/30 09:07:36;;;;;;;29.30;4.13;;;5.60;99.90;;;;;;4731879;30;20051;-84
2022/01/30 09:10:04;;;;;;;20.38;4.32;;;5.60;99.90;;;;;;4719585;30;20053;-84
2022/01/30 09:12:30;;;;;;;28.95;5.20;;;5.50;99.90;;;;;;4719695;30;20041;-83
2022/01/30 09:14:55;;;;;;;29.05;3.75;;;5.60;99.90;;;;;;4734173;30;20505;-84
2022/01/30 09:17:22;;;;;;;26.73;4.10;;;5.70;99.90;;;;;;4738290;30;20041;-83
2022/01/30 09:19:48;;;;;;;21.23;2.92;;;5.80;99.90;;;;;;4719543;30;20488;-84
2022/01/30 09:22:16;;;;;;;28.02;4.10;;;5.80;99.90;;;;;;4727076;30;20045;-84
2022/01/30 09:24:42;;;;;;;21.98;3.95;;;5.80;99.90;;;;;;4706626;30;20059;-84
2022/01/30 09:27:08;;;;;;;22.23;3.65;;;5.80;99.90;;;;;;4716223;30;20041;-84
2022/01/30 09:29:35;;;;;;;30.05;5.68;;;5.80;99.90;;;;;;4700946;30;20043;-84
2022/01/30 09:32:03;;;;;;;23.58;3.25;;;5.80;99.90;;;;;;4728738;30;20041;-84
2022/01/30 09:34:28;;;;;;;24.88;5.15;;;5.90;99.90;;;;;;4718411;30;20047;-84
2022/01/30 09:36:54;;;;;;;25.33;3.83;;;6.00;99.90;;;;;;4731656;30;20101;-84
2022/01/30 09:39:22;;;;;;;24.75;3.38;;;6.10;99.90;;;;;;4742948;30;20078;-84
2022/01/30 09:41:50;;;;;;;18.45;3.53;;;6.10;99.90;;;;;;4744224;30;20047;-84
2022/01/30 09:44:16;;;;;;;19.33;3.42;;;6.20;99.90;;;;;;4734615;30;20412;-84
2022/01/30 09:46:43;;;;;;;30.40;4.28;;;6.30;99.90;;;;;;4742422;30;20083;-84
2022/01/30 09:49:10;;;;;;;24.58;4.13;;;6.30;99.90;;;;;;4713753;30;20045;-84
2022/01/30 09:51:38;;;;;;;20.90;3.72;;;6.40;99.90;;;;;;4718578;30;20415;-84
2022/01/30 09:54:04;;;;;;;23.40;4.70;;;6.40;99.90;;;;;;4717742;30;20051;-84
2022/01/30 09:56:30;;;;;;;21.90;3.40;;;6.40;99.90;;;;;;4722058;30;20052;-84
2022/01/30 09:58:56;;;;;;;28.15;4.25;;;6.50;99.90;;;;;;4717546;30;20076;-83
2022/01/30 10:01:21;;;;;;;23.88;4.32;;;6.50;99.90;;;;;;4744526;30;20143;-84
2022/01/30 10:03:48;;;;;;;20.92;2.97;;;6.60;99.90;;;;;;4712799;30;20055;-83
2022/01/30 10:06:22;;;;;;;22.30;3.55;;;6.60;99.60;;;;;;4719536;30;20045;-84
2022/01/30 10:08:52;;;;;;;26.85;4.20;;;6.60;99.80;;;;;;4714150;30;20052;-84
2022/01/30 10:11:37;;;;;;;23.83;4.13;;;6.50;99.90;;;;;;4718074;30;20058;-84
2022/01/30 10:14:03;;;;;;;20.50;3.15;;;6.60;99.90;;;;;;4731345;30;20156;-84
2022/01/30 10:16:41;;;;;;;22.88;4.40;;;6.60;99.80;;;;;;4719510;30;20237;-84
2022/01/30 10:19:09;;;;;;;20.38;3.42;;;6.80;98.80;;;;;;4718206;30;20515;-84
2022/01/30 10:21:34;;;;;;;15.57;2.90;;;7.00;99.50;;;;;;4719835;30;20056;-84
2022/01/30 10:24:16;;;;;;;31.48;3.58;;;7.20;97.50;;;;;;4704655;30;20396;-84
2022/01/30 10:26:41;;;;;;;31.02;4.05;;;7.30;96.60;;;;;;4717883;30;20052;-84
2022/01/30 10:29:22;;;;;;;27.88;3.80;;;7.20;95.60;;;;;;4706505;30;20162;-84
2022/01/30 10:32:02;;;;;;;27.17;3.95;;;7.10;95.60;;;;;;4716620;30;20425;-84
2022/01/30 10:34:28;;;;;;;25.00;4.88;;;7.10;95.60;;;;;;4733255;30;20044;-84
2022/01/30 10:37:16;;;;;;;33.33;4.43;;;7.00;97.00;;;;;;4717010;30;20424;-84
2022/01/30 10:40:16;;;;;;;27.77;6.40;;;7.10;96.40;;;;;;4730698;30;20048;-84
2022/01/30 10:42:48;;;;;;;27.05;3.72;;;7.10;96.80;;;;;;4739634;30;20060;-85
2022/01/30 10:45:34;;;;;;;28.15;4.40;;;7.00;98.20;;;;;;4709317;30;20055;-84
2022/01/30 10:48:17;;;;;;;23.80;4.22;;;7.00;96.70;;;;;;4718404;30;20608;-85
2022/01/30 10:50:48;;;;;;;27.02;4.35;;;7.00;96.30;;;;;;4713883;30;20207;-84
2022/01/30 10:53:26;;;;;;;26.65;4.07;;;7.00;95.50;;;;;;4714279;30;20067;-84
2022/01/30 10:55:53;;;;;;;25.08;4.47;;;7.10;96.00;;;;;;4720362;30;20060;-84
2022/01/30 10:58:23;;;;;;;24.15;3.42;;;7.20;96.40;;;;;;4716307;30;20091;-84
2022/01/30 11:00:52;;;;;;;32.17;4.72;;;7.30;95.40;;;;;;4715082;30;20048;-84
2022/01/30 11:03:39;;;;;;;24.92;3.55;;;7.40;96.10;;;;;;4714865;30;20044;-84
2022/01/30 11:06:10;;;;;;;30.95;4.35;;;7.50;93.10;;;;;;4703183;30;20083;-84
2022/01/30 11:08:39;;;;;;;22.35;3.97;;;7.60;94.50;;;;;;4714834;30;20052;-84
2022/01/30 11:11:19;;;;;;;27.55;3.92;;;7.70;94.30;;;;;;4717758;30;20052;-84
2022/01/30 11:14:02;;;;;;;24.83;4.47;;;7.70;91.80;;;;;;4725069;30;20052;-84
2022/01/30 11:19:15;;;;;;;28.27;4.60;;;7.90;94.10;;;;;;4713869;30;20052;-84
2022/01/30 11:21:42;;;;;;;20.15;3.63;;;8.10;93.40;;;;;;4703503;30;20409;-84
2022/01/30 11:24:10;;;;;;;22.80;3.70;;;8.20;91.90;;;;;;4716919;30;20071;-85
2022/01/30 11:26:36;;;;;;;23.92;4.63;;;8.40;88.50;;;;;;4721907;30;20049;-84
2022/01/30 11:29:02;;;;;;;20.65;4.15;;;8.40;87.80;;;;;;4735934;30;20039;-84
2022/01/30 11:31:28;;;;;;;24.13;3.35;;;8.70;87.70;;;;;;4740401;30;20044;-83
2022/01/30 11:33:55;;;;;;;28.92;4.65;;;9.00;83.30;;;;;;4746066;30;20057;-83
2022/01/30 11:36:22;;;;;;;25.70;3.88;;;8.90;81.80;;;;;;4705511;30;20056;-84
2022/01/30 11:38:49;;;;;;;21.35;3.53;;;8.70;84.80;;;;;;4723355;30;20044;-84
2022/01/30 11:41:17;;;;;;;23.88;3.15;;;8.70;86.50;;;;;;4718467;30;20091;-84
2022/01/30 11:44:17;;;;;;;26.08;3.58;;;8.60;88.00;;;;;;4723251;30;20044;-84
2022/01/30 11:46:43;;;;;;;23.23;3.78;;;8.40;84.70;;;;;;4733479;30;20052;-84
2022/01/30 11:49:14;;;;;;;19.88;3.63;;;8.20;87.10;;;;;;4707655;30;20455;-84
2022/01/30 11:51:49;;;;;;;21.05;4.40;;;8.00;85.00;;;;;;4728623;30;20546;-85
2022/01/30 11:57:44;;;;;;;29.73;3.80;;;7.70;88.10;;;;;;4734367;30;20476;-84
2022/01/30 12:00:37;;;;;;;22.40;3.97;;;7.60;89.10;;;;;;4705645;30;20143;-84
2022/01/30 12:03:25;;;;;;;21.50;4.10;;;7.70;88.20;;;;;;4713572;30;20128;-83
2022/01/30 12:05:51;;;;;;;24.35;3.47;;;8.00;88.60;;;;;;4745648;30;20132;-84
2022/01/30 12:08:44;;;;;;;17.13;3.15;;;8.70;87.30;;;;;;4707910;30;20049;-84
2022/01/30 12:11:35;;;;;;;26.27;3.90;;;9.20;83.40;;;;;;4720002;30;20121;-84
2022/01/30 12:14:10;;;;;;;21.60;3.80;;;9.40;81.50;;;;;;4717244;30;20055;-84
2022/01/30 12:16:52;;;;;;;19.00;3.50;;;9.00;80.10;;;;;;4710760;30;20103;-84
2022/01/30 12:19:30;;;;;;;24.02;3.38;;;8.50;82.60;;;;;;4714316;30;20452;-84
2022/01/30 12:22:15;;;;;;;19.55;3.08;;;8.30;83.00;;;;;;4718225;30;20464;-84
2022/01/30 12:24:40;;;;;;;22.02;3.15;;;8.90;81.10;;;;;;4716210;30;20615;-84
2022/01/30 12:27:06;;;;;;;18.48;3.00;;;9.80;78.50;;;;;;4733963;30;20131;-84
2022/01/30 12:29:46;;;;;;;17.52;3.03;;;10.50;74.00;;;;;;4707533;30;20223;-84
2022/01/30 12:32:24;;;;;;;17.25;2.42;;;10.30;68.50;;;;;;4720203;30;20068;-84
2022/01/30 12:34:55;;;;;;;16.38;2.85;;;9.90;69.70;;;;;;4721912;30;20052;-84
2022/01/30 12:37:25;;;;;;;23.05;3.47;;;9.40;70.40;;;;;;4718319;30;20049;-84
2022/01/30 12:39:52;;;;;;;31.85;4.03;;;9.00;73.70;;;;;;4719167;30;20063;-83
2022/01/30 12:42:19;;;;;;;17.50;3.30;;;8.80;77.90;;;;;;4729222;30;20048;-84
2022/01/30 12:44:46;;;;;;;24.23;4.28;;;8.60;80.80;;;;;;4721911;30;20052;-83
2022/01/30 12:47:17;;;;;;;21.25;3.10;;;8.60;77.50;;;;;;4717777;30;20044;-83
2022/01/30 12:49:49;;;;;;;18.40;2.90;;;9.20;75.50;;;;;;4731834;30;20051;-84
2022/01/30 12:52:51;;;;;;;24.85;3.45;;;9.90;73.80;;;;;;4748552;30;20044;-84
2022/01/30 12:55:12;;;;;;;26.80;3.33;;;10.40;68.80;;;;;;4747265;30;20053;-84
2022/01/30 12:57:40;;;;;;;17.13;3.33;;;10.90;68.10;;;;;;4716232;30;20037;-84
2022/01/30 13:00:08;;;;;;;22.50;3.70;;;11.20;66.80;;;;;;4721039;30;20395;-84
2022/01/30 13:02:36;;;;;;;22.55;3.53;;;11.10;64.90;;;;;;4709469;30;20862;-83
2022/01/30 13:05:07;;;;;;;24.10;3.92;;;11.20;66.60;;;;;;4718377;30;20080;-83
2022/01/30 13:07:34;;;;;;;24.35;4.22;;;11.20;64.10;;;;;;4719995;30;20072;-83
2022/01/30 13:10:13;;;;;;;25.70;4.38;;;11.20;64.20;;;;;;4716635;30;20365;-84
2022/01/30 13:12:44;;;;;;;24.38;4.20;;;10.90;64.20;;;;;;4719236;30;20127;-84
2022/01/30 13:15:12;;;;;;;20.35;3.33;;;11.00;66.10;;;;;;4720603;30;20049;-83
2022/01/30 13:17:39;;;;;;;31.08;4.55;;;11.20;67.60;;;;;;4723661;30;20451;-84
2022/01/30 13:20:07;;;;;;;24.95;4.28;;;11.40;66.80;;;;;;4723503;30;20048;-84
2022/01/30 13:22:36;;;;;;;29.67;5.03;;;11.60;67.10;;;;;;4707438;30;20164;-84
2022/01/30 13:25:10;;;;;;;23.80;4.47;;;11.80;66.80;;;;;;4730022;30;20141;-84
2022/01/30 13:27:37;;;;;;;23.98;3.90;;;11.80;66.10;;;;;;4719050;30;20102;-84
2022/01/30 13:30:04;;;;;;;29.80;4.55;;;11.70;66.20;;;;;;4719559;30;20507;-84
2022/01/30 13:32:29;;;;;;;18.20;3.30;;;11.20;66.30;;;;;;4733828;30;20588;-83
2022/01/30 13:34:59;;;;;;;18.55;3.70;;;11.00;66.10;;;;;;4716286;30;20044;-83
2022/01/30 13:37:25;;;;;;;25.42;4.93;;;10.90;67.20;;;;;;4724674;30;20149;-83
2022/01/30 13:42:37;;;;;;;25.02;4.53;;;10.90;68.90;;;;;;4721476;30;20048;-84
2022/01/30 13:47:58;;;;;;;25.20;3.97;;;10.50;68.20;;;;;;4731525;30;20627;-83
2022/01/30 13:50:54;;;;;;;21.10;3.90;;;10.40;68.60;;;;;;4721235;30;20710;-83
2022/01/30 13:53:19;;;;;;;14.70;3.50;;;10.40;69.80;;;;;;4714854;30;20464;-83
2022/01/30 13:56:05;;;;;;;25.13;3.63;;;10.60;70.40;;;;;;4751687;30;20566;-84
2022/01/30 13:58:37;;;;;;;15.40;3.30;;;10.80;67.30;;;;;;4747614;30;20410;-84
2022/01/30 14:01:10;;;;;;;17.63;3.53;;;10.90;65.60;;;;;;4722335;30;20052;-84
2022/01/30 14:03:38;;;;;;;21.25;2.72;;;10.90;67.40;;;;;;4722251;30;20117;-84
2022/01/30 14:06:15;;;;;;;18.60;3.30;;;11.00;67.50;;;;;;4720908;30;20918;-84
2022/01/30 14:09:00;;;;;;;27.70;4.38;;;11.10;66.40;;;;;;4722684;30;20128;-84
2022/01/30 14:11:28;;;;;;;18.60;3.17;;;11.00;65.70;;;;;;4750566;30;20051;-84
2022/01/30 14:13:58;;;;;;;18.23;3.10;;;10.90;65.90;;;;;;4730509;30;20540;-84
2022/01/30 14:16:43;;;;;;;23.10;3.83;;;10.50;65.90;;;;;;4735219;30;20472;-84
2022/01/30 14:19:21;;;;;;;22.10;3.28;;;10.40;66.70;;;;;;4747755;30;20040;-84
2022/01/30 14:21:49;;;;;;;19.63;3.42;;;10.20;68.00;;;;;;4719110;30;20037;-85
2022/01/30 14:24:17;;;;;;;18.00;3.30;;;10.00;70.50;;;;;;4720634;30;20087;-84
2022/01/30 14:26:43;;;;;;;16.20;3.53;;;9.60;70.70;;;;;;4720694;30;20099;-86
2022/01/30 14:29:16;;;;;;;18.73;3.55;;;9.40;73.20;;;;;;4733979;30;20055;-87